sensor_id;sensor_type;location;lat;lon;timestamp;pressure;altitude;pressure_sealevel;temperature;humidity
21817;BME280;13247;47.504;7.382;2023-02-16T00:00:46;98454.22;;;2.78;100.00
21817;BME280;13247;47.504;7.382;2023-02-16T00:03:31;98457.75;;;2.83;100.00
21817;BME280;13247;47.504;7.382;2023-02-16T00:06:16;98447.53;;;2.92;100.00
21817;BME280;13247;47.504;7.382;2023-02-16T00:09:00;98452.84;;;2.99;100.00
21817;BME280;13247;47.504;7.382;2023-02-16T00:11:45;98447.50;;;2.90;100.00
21817;BME280;13247;47.504;7.382;2023-02-16T00:14:49;98458.41;;;2.73;100.00
21817;BME280;13247;47.504;7.382;2023-02-16T00:17:34;98450.75;;;2.79;100.00
21817;BME280;13247;47.504;7.382;2023-02-16T00:20:18;98452.50;;;2.78;100.00
21817;BME280;13247;47.504;7.382;2023-02-16T00:23:03;98455.16;;;2.83;100.00
21817;BME280;13247;47.504;7.382;2023-02-16T00:25:48;98454.03;;;2.67;100.00
21817;BME280;13247;47.504;7.382;2023-02-16T00:28:33;98449.09;;;2.81;100.00
21817;BME280;13247;47.504;7.382;2023-02-16T00:31:19;98436.06;;;2.78;100.00
21817;BME280;13247;47.504;7.382;2023-02-16T00:34:26;98449.34;;;2.47;100.00
21817;BME280;13247;47.504;7.382;2023-02-16T00:37:12;98458.41;;;2.25;100.00
21817;BME280;13247;47.504;7.382;2023-02-16T00:39:57;98449.69;;;2.20;100.00
21817;BME280;13247;47.504;7.382;2023-02-16T00:42:43;98452.47;;;2.30;100.00
21817;BME280;13247;47.504;7.382;2023-02-16T00:45:30;98452.72;;;1.98;100.00
21817;BME280;13247;47.504;7.382;2023-02-16T00:48:17;98458.44;;;1.83;100.00
21817;BME280;13247;47.504;7.382;2023-02-16T00:51:02;98452.84;;;2.05;100.00
21817;BME280;13247;47.504;7.382;2023-02-16T00:53:46;98458.13;;;2.10;100.00
21817;BME280;13247;47.504;7.382;2023-02-16T00:56:31;98452.22;;;2.15;100.00
21817;BME280;13247;47.504;7.382;2023-02-16T00:59:20;98462.72;;;2.24;100.00
21817;BME280;13247;47.504;7.382;2023-02-16T01:02:06;98455.00;;;2.26;100.00
21817;BME280;13247;47.504;7.382;2023-02-16T01:04:51;98454.13;;;2.27;100.00
21817;BME280;13247;47.504;7.382;2023-02-16T01:07:35;98455.81;;;2.25;100.00
21817;BME280;13247;47.504;7.382;2023-02-16T01:10:39;98453.84;;;2.12;100.00
21817;BME280;13247;47.504;7.382;2023-02-16T01:13:45;98447.06;;;2.18;100.00
21817;BME280;13247;47.504;7.382;2023-02-16T01:16:39;98453.94;;;2.16;100.00
21817;BME280;13247;47.504;7.382;2023-02-16T01:19:24;98454.88;;;1.78;100.00
21817;BME280;13247;47.504;7.382;2023-02-16T01:22:09;98448.47;;;1.61;100.00
21817;BME280;13247;47.504;7.382;2023-02-16T01:24:53;98449.47;;;1.66;100.00
21817;BME280;13247;47.504;7.382;2023-02-16T01:27:39;98445.63;;;1.88;100.00
21817;BME280;13247;47.504;7.382;2023-02-16T01:30:25;98461.81;;;1.79;100.00
21817;BME280;13247;47.504;7.382;2023-02-16T01:33:10;98458.91;;;1.66;100.00
21817;BME280;13247;47.504;7.382;2023-02-16T01:35:56;98447.69;;;1.65;100.00
21817;BME280;13247;47.504;7.382;2023-02-16T01:38:41;98444.94;;;1.56;100.00
21817;BME280;13247;47.504;7.382;2023-02-16T01:47:50;98439.34;;;1.36;100.00
21817;BME280;13247;47.504;7.382;2023-02-16T01:50:47;98440.56;;;1.53;100.00
21817;BME280;13247;47.504;7.382;2023-02-16T01:53:41;98442.72;;;1.34;100.00
21817;BME280;13247;47.504;7.382;2023-02-16T01:56:34;98445.00;;;1.20;100.00
21817;BME280;13247;47.504;7.382;2023-02-16T02:02:19;98434.66;;;1.60;100.00
21817;BME280;13247;47.504;7.382;2023-02-16T02:05:24;98435.56;;;1.61;100.00
21817;BME280;13247;47.504;7.382;2023-02-16T02:08:26;98440.16;;;1.35;100.00
21817;BME280;13247;47.504;7.382;2023-02-16T02:11:34;98441.78;;;1.30;100.00
21817;BME280;13247;47.504;7.382;2023-02-16T02:14:28;98437.53;;;1.32;100.00
21817;BME280;13247;47.504;7.382;2023-02-16T02:17:17;98446.53;;;1.49;100.00
21817;BME280;13247;47.504;7.382;2023-02-16T02:20:26;98442.91;;;1.41;100.00
21817;BME280;13247;47.504;7.382;2023-02-16T02:23:38;98439.13;;;1.66;100.00
21817;BME280;13247;47.504;7.382;2023-02-16T02:37:02;98429.63;;;1.26;100.00
21817;BME280;13247;47.504;7.382;2023-02-16T02:45:58;98417.41;;;1.58;100.00
21817;BME280;13247;47.504;7.382;2023-02-16T02:48:45;98421.72;;;1.59;100.00
21817;BME280;13247;47.504;7.382;2023-02-16T02:51:29;98416.78;;;1.70;100.00
21817;BME280;13247;47.504;7.382;2023-02-16T02:57:29;98423.38;;;1.55;100.00
21817;BME280;13247;47.504;7.382;2023-02-16T03:00:39;98420.31;;;1.73;100.00
21817;BME280;13247;47.504;7.382;2023-02-16T03:03:41;98419.91;;;1.55;100.00
21817;BME280;13247;47.504;7.382;2023-02-16T03:06:30;98415.84;;;1.65;100.00
21817;BME280;13247;47.504;7.382;2023-02-16T03:09:16;98416.06;;;1.77;100.00
21817;BME280;13247;47.504;7.382;2023-02-16T03:12:03;98414.38;;;1.79;100.00
21817;BME280;13247;47.504;7.382;2023-02-16T03:15:08;98404.94;;;1.79;100.00
21817;BME280;13247;47.504;7.382;2023-02-16T03:17:54;98410.94;;;1.78;100.00
21817;BME280;13247;47.504;7.382;2023-02-16T03:21:00;98404.75;;;1.72;100.00
21817;BME280;13247;47.504;7.382;2023-02-16T03:24:08;98401.72;;;1.92;100.00
21817;BME280;13247;47.504;7.382;2023-02-16T03:27:22;98407.66;;;1.87;100.00
21817;BME280;13247;47.504;7.382;2023-02-16T03:30:28;98410.47;;;1.99;100.00
21817;BME280;13247;47.504;7.382;2023-02-16T03:33:13;98410.44;;;1.97;100.00
21817;BME280;13247;47.504;7.382;2023-02-16T03:35:59;98413.13;;;2.02;100.00
21817;BME280;13247;47.504;7.382;2023-02-16T03:38:44;98414.69;;;1.94;100.00
21817;BME280;13247;47.504;7.382;2023-02-16T03:41:34;98415.13;;;2.16;100.00
21817;BME280;13247;47.504;7.382;2023-02-16T03:44:21;98418.09;;;1.91;100.00
21817;BME280;13247;47.504;7.382;2023-02-16T03:47:08;98428.97;;;1.75;100.00
21817;BME280;13247;47.504;7.382;2023-02-16T03:49:54;98427.13;;;1.71;100.00
21817;BME280;13247;47.504;7.382;2023-02-16T03:52:39;98422.72;;;1.64;100.00
21817;BME280;13247;47.504;7.382;2023-02-16T03:55:24;98423.53;;;1.63;100.00
21817;BME280;13247;47.504;7.382;2023-02-16T03:58:10;98418.63;;;1.75;100.00
21817;BME280;13247;47.504;7.382;2023-02-16T04:00:56;98410.47;;;1.99;100.00
21817;BME280;13247;47.504;7.382;2023-02-16T04:03:42;98417.19;;;1.89;100.00
21817;BME280;13247;47.504;7.382;2023-02-16T04:06:27;98423.25;;;1.91;100.00
21817;BME280;13247;47.504;7.382;2023-02-16T04:09:12;98423.59;;;2.08;100.00
21817;BME280;13247;47.504;7.382;2023-02-16T04:11:56;98422.78;;;2.10;100.00
21817;BME280;13247;47.504;7.382;2023-02-16T04:15:00;98431.84;;;1.90;100.00
21817;BME280;13247;47.504;7.382;2023-02-16T04:17:44;98427.56;;;1.92;100.00
21817;BME280;13247;47.504;7.382;2023-02-16T04:20:32;98423.84;;;1.78;100.00
21817;BME280;13247;47.504;7.382;2023-02-16T04:23:17;98431.81;;;1.87;100.00
21817;BME280;13247;47.504;7.382;2023-02-16T04:26:01;98426.50;;;1.81;100.00
21817;BME280;13247;47.504;7.382;2023-02-16T04:28:46;98436.13;;;1.88;100.00
21817;BME280;13247;47.504;7.382;2023-02-16T04:31:30;98431.13;;;1.97;100.00
21817;BME280;13247;47.504;7.382;2023-02-16T04:34:15;98428.75;;;2.08;100.00
21817;BME280;13247;47.504;7.382;2023-02-16T04:37:00;98422.28;;;1.86;100.00
21817;BME280;13247;47.504;7.382;2023-02-16T04:39:45;98430.94;;;1.87;100.00
21817;BME280;13247;47.504;7.382;2023-02-16T04:42:30;98433.25;;;1.73;100.00
21817;BME280;13247;47.504;7.382;2023-02-16T04:45:14;98430.25;;;1.97;100.00
21817;BME280;13247;47.504;7.382;2023-02-16T04:47:59;98433.59;;;1.90;100.00
21817;BME280;13247;47.504;7.382;2023-02-16T04:50:44;98433.06;;;2.07;100.00
21817;BME280;13247;47.504;7.382;2023-02-16T04:53:29;98436.53;;;2.09;100.00
21817;BME280;13247;47.504;7.382;2023-02-16T04:56:13;98433.88;;;2.05;100.00
21817;BME280;13247;47.504;7.382;2023-02-16T04:58:58;98438.22;;;2.07;100.00
21817;BME280;13247;47.504;7.382;2023-02-16T05:01:43;98440.16;;;2.17;100.00
21817;BME280;13247;47.504;7.382;2023-02-16T05:04:28;98439.31;;;2.18;100.00
21817;BME280;13247;47.504;7.382;2023-02-16T05:07:13;98433.94;;;2.08;100.00
21817;BME280;13247;47.504;7.382;2023-02-16T05:09:58;98436.53;;;2.09;100.00
21817;BME280;13247;47.504;7.382;2023-02-16T05:12:42;98432.38;;;1.74;100.00
21817;BME280;13247;47.504;7.382;2023-02-16T05:15:46;98433.50;;;1.87;100.00
21817;BME280;13247;47.504;7.382;2023-02-16T05:18:31;98433.47;;;1.84;100.00
21817;BME280;13247;47.504;7.382;2023-02-16T05:21:15;98437.44;;;1.68;100.00
21817;BME280;13247;47.504;7.382;2023-02-16T05:24:15;98428.94;;;1.74;100.00
21817;BME280;13247;47.504;7.382;2023-02-16T05:27:05;98432.63;;;1.86;100.00
21817;BME280;13247;47.504;7.382;2023-02-16T05:29:50;98436.44;;;2.03;100.00
21817;BME280;13247;47.504;7.382;2023-02-16T05:32:35;98425.41;;;2.13;100.00
21817;BME280;13247;47.504;7.382;2023-02-16T05:35:19;98438.47;;;2.19;100.00
21817;BME280;13247;47.504;7.382;2023-02-16T05:38:04;98433.25;;;2.16;100.00
21817;BME280;13247;47.504;7.382;2023-02-16T05:40:49;98432.34;;;2.14;100.00
21817;BME280;13247;47.504;7.382;2023-02-16T05:43:33;98432.13;;;2.04;100.00
21817;BME280;13247;47.504;7.382;2023-02-16T05:46:20;98434.75;;;2.05;100.00
21817;BME280;13247;47.504;7.382;2023-02-16T05:49:06;98439.69;;;1.93;100.00
21817;BME280;13247;47.504;7.382;2023-02-16T05:51:51;98435.28;;;1.89;100.00
21817;BME280;13247;47.504;7.382;2023-02-16T05:54:35;98442.06;;;1.44;100.00
21817;BME280;13247;47.504;7.382;2023-02-16T05:57:20;98438.88;;;1.55;100.00
21817;BME280;13247;47.504;7.382;2023-02-16T06:00:05;98441.28;;;1.48;100.00
21817;BME280;13247;47.504;7.382;2023-02-16T06:02:50;98443.19;;;1.56;100.00
21817;BME280;13247;47.504;7.382;2023-02-16T06:05:34;98449.13;;;1.51;100.00
21817;BME280;13247;47.504;7.382;2023-02-16T06:08:19;98442.19;;;1.50;100.00
21817;BME280;13247;47.504;7.382;2023-02-16T06:11:04;98435.50;;;1.58;100.00
21817;BME280;13247;47.504;7.382;2023-02-16T06:14:18;98444.28;;;1.66;100.00
21817;BME280;13247;47.504;7.382;2023-02-16T06:17:02;98435.78;;;1.72;100.00
21817;BME280;13247;47.504;7.382;2023-02-16T06:19:47;98440.84;;;1.67;100.00
21817;BME280;13247;47.504;7.382;2023-02-16T06:22:32;98442.44;;;1.60;100.00
21817;BME280;13247;47.504;7.382;2023-02-16T06:25:17;98442.38;;;1.57;100.00
21817;BME280;13247;47.504;7.382;2023-02-16T06:28:04;98452.34;;;1.41;100.00
21817;BME280;13247;47.504;7.382;2023-02-16T06:30:49;98456.38;;;1.28;100.00
21817;BME280;13247;47.504;7.382;2023-02-16T06:33:33;98453.66;;;1.61;100.00
21817;BME280;13247;47.504;7.382;2023-02-16T06:36:18;98449.00;;;1.45;100.00
21817;BME280;13247;47.504;7.382;2023-02-16T06:39:03;98463.56;;;1.41;100.00
21817;BME280;13247;47.504;7.382;2023-02-16T06:41:48;98466.63;;;1.63;100.00
21817;BME280;13247;47.504;7.382;2023-02-16T06:44:33;98462.19;;;1.58;100.00
21817;BME280;13247;47.504;7.382;2023-02-16T06:47:19;98459.34;;;1.46;100.00
21817;BME280;13247;47.504;7.382;2023-02-16T06:50:05;98465.28;;;1.41;100.00
21817;BME280;13247;47.504;7.382;2023-02-16T06:52:51;98462.69;;;1.41;100.00
21817;BME280;13247;47.504;7.382;2023-02-16T06:55:35;98454.03;;;1.39;100.00
21817;BME280;13247;47.504;7.382;2023-02-16T06:58:20;98458.69;;;1.55;100.00
21817;BME280;13247;47.504;7.382;2023-02-16T07:01:05;98452.63;;;1.53;100.00
21817;BME280;13247;47.504;7.382;2023-02-16T07:03:50;98452.94;;;1.29;100.00
21817;BME280;13247;47.504;7.382;2023-02-16T07:06:35;98456.78;;;1.48;100.00
21817;BME280;13247;47.504;7.382;2023-02-16T07:09:20;98463.09;;;1.59;100.00
21817;BME280;13247;47.504;7.382;2023-02-16T07:12:05;98463.28;;;1.68;100.00
21817;BME280;13247;47.504;7.382;2023-02-16T07:14:50;98460.72;;;1.70;100.00
21817;BME280;13247;47.504;7.382;2023-02-16T07:17:35;98468.94;;;1.92;100.00
21817;BME280;13247;47.504;7.382;2023-02-16T07:20:20;98470.16;;;2.08;100.00
21817;BME280;13247;47.504;7.382;2023-02-16T07:23:04;98476.38;;;2.17;100.00
21817;BME280;13247;47.504;7.382;2023-02-16T07:25:50;98473.03;;;2.23;100.00
21817;BME280;13247;47.504;7.382;2023-02-16T07:28:35;98481.50;;;2.16;100.00
21817;BME280;13247;47.504;7.382;2023-02-16T07:31:19;98490.25;;;2.21;100.00
21817;BME280;13247;47.504;7.382;2023-02-16T07:34:04;98485.09;;;2.22;100.00
21817;BME280;13247;47.504;7.382;2023-02-16T07:36:49;98485.75;;;2.12;100.00
21817;BME280;13247;47.504;7.382;2023-02-16T07:39:34;98485.44;;;1.96;100.00
21817;BME280;13247;47.504;7.382;2023-02-16T07:42:19;98486.31;;;1.98;100.00
21817;BME280;13247;47.504;7.382;2023-02-16T07:45:04;98489.13;;;2.07;100.00
21817;BME280;13247;47.504;7.382;2023-02-16T07:47:49;98493.72;;;2.21;100.00
21817;BME280;13247;47.504;7.382;2023-02-16T07:50:35;98492.75;;;2.16;100.00
21817;BME280;13247;47.504;7.382;2023-02-16T07:53:20;98498.00;;;2.21;100.00
21817;BME280;13247;47.504;7.382;2023-02-16T07:56:05;98505.09;;;2.31;100.00
21817;BME280;13247;47.504;7.382;2023-02-16T07:58:54;98506.50;;;2.59;100.00
21817;BME280;13247;47.504;7.382;2023-02-16T08:01:39;98498.72;;;2.57;100.00
21817;BME280;13247;47.504;7.382;2023-02-16T08:04:24;98503.00;;;2.55;100.00
21817;BME280;13247;47.504;7.382;2023-02-16T08:07:14;98495.44;;;2.67;100.00
21817;BME280;13247;47.504;7.382;2023-02-16T08:09:59;98502.22;;;2.61;100.00
21817;BME280;13247;47.504;7.382;2023-02-16T08:12:44;98505.09;;;2.76;100.00
21817;BME280;13247;47.504;7.382;2023-02-16T08:15:29;98508.06;;;2.95;100.00
21817;BME280;13247;47.504;7.382;2023-02-16T08:18:13;98502.44;;;3.21;100.00
21817;BME280;13247;47.504;7.382;2023-02-16T08:21:07;98505.28;;;3.37;100.00
21817;BME280;13247;47.504;7.382;2023-02-16T08:24:02;98501.22;;;3.54;100.00
21817;BME280;13247;47.504;7.382;2023-02-16T08:26:48;98510.78;;;3.58;100.00
21817;BME280;13247;47.504;7.382;2023-02-16T08:29:33;98510.13;;;3.71;100.00
21817;BME280;13247;47.504;7.382;2023-02-16T08:32:19;98515.31;;;3.73;100.00
21817;BME280;13247;47.504;7.382;2023-02-16T08:35:04;98510.44;;;3.94;100.00
21817;BME280;13247;47.504;7.382;2023-02-16T08:37:49;98509.81;;;4.13;100.00
21817;BME280;13247;47.504;7.382;2023-02-16T08:40:34;98506.53;;;4.26;100.00
21817;BME280;13247;47.504;7.382;2023-02-16T08:43:18;98505.84;;;4.41;100.00
21817;BME280;13247;47.504;7.382;2023-02-16T08:46:06;98505.91;;;4.47;100.00
21817;BME280;13247;47.504;7.382;2023-02-16T08:48:53;98492.75;;;5.19;100.00
21817;BME280;13247;47.504;7.382;2023-02-16T08:51:43;98501.09;;;4.83;100.00
21817;BME280;13247;47.504;7.382;2023-02-16T08:54:28;98503.59;;;4.75;100.00
21817;BME280;13247;47.504;7.382;2023-02-16T08:57:14;98489.00;;;4.84;100.00
21817;BME280;13247;47.504;7.382;2023-02-16T08:59:59;98486.72;;;5.21;100.00
21817;BME280;13247;47.504;7.382;2023-02-16T09:03:02;98494.47;;;5.18;100.00
21817;BME280;13247;47.504;7.382;2023-02-16T09:05:49;98500.59;;;5.26;100.00
21817;BME280;13247;47.504;7.382;2023-02-16T09:08:35;98499.78;;;5.30;100.00
21817;BME280;13247;47.504;7.382;2023-02-16T09:11:22;98498.19;;;5.46;100.00
21817;BME280;13247;47.504;7.382;2023-02-16T09:14:07;98493.88;;;5.54;100.00
21817;BME280;13247;47.504;7.382;2023-02-16T09:16:53;98499.06;;;5.49;100.00
21817;BME280;13247;47.504;7.382;2023-02-16T09:19:37;98494.81;;;5.59;100.00
21817;BME280;13247;47.504;7.382;2023-02-16T09:22:22;98499.16;;;5.66;100.00
21817;BME280;13247;47.504;7.382;2023-02-16T09:25:07;98506.16;;;5.72;100.00
21817;BME280;13247;47.504;7.382;2023-02-16T09:27:52;98515.72;;;5.79;100.00
21817;BME280;13247;47.504;7.382;2023-02-16T09:30:38;98514.13;;;5.91;100.00
21817;BME280;13247;47.504;7.382;2023-02-16T09:33:23;98517.75;;;6.20;100.00
21817;BME280;13247;47.504;7.382;2023-02-16T09:36:11;98517.94;;;6.70;100.00
21817;BME280;13247;47.504;7.382;2023-02-16T09:38:56;98519.69;;;6.71;100.00
21817;BME280;13247;47.504;7.382;2023-02-16T09:44:49;98509.31;;;6.95;100.00
21817;BME280;13247;47.504;7.382;2023-02-16T09:47:41;98502.34;;;6.88;100.00
21817;BME280;13247;47.504;7.382;2023-02-16T09:50:28;98502.38;;;7.19;100.00
21817;BME280;13247;47.504;7.382;2023-02-16T09:59:21;98497.13;;;7.67;100.00
21817;BME280;13247;47.504;7.382;2023-02-16T10:05:42;98501.34;;;8.37;100.00
21817;BME280;13247;47.504;7.382;2023-02-16T10:08:35;98505.59;;;8.61;97.84
21817;BME280;13247;47.504;7.382;2023-02-16T10:17:45;98495.88;;;8.86;100.00
21817;BME280;13247;47.504;7.382;2023-02-16T10:20:36;98495.97;;;8.66;100.00
21817;BME280;13247;47.504;7.382;2023-02-16T10:23:28;98491.53;;;8.79;100.00
21817;BME280;13247;47.504;7.382;2023-02-16T10:26:36;98485.19;;;9.17;100.00
21817;BME280;13247;47.504;7.382;2023-02-16T10:29:21;98479.84;;;9.31;100.00
21817;BME280;13247;47.504;7.382;2023-02-16T10:32:26;98480.63;;;9.40;97.83
21817;BME280;13247;47.504;7.382;2023-02-16T10:35:15;98476.09;;;9.62;91.60
21817;BME280;13247;47.504;7.382;2023-02-16T10:38:28;98471.72;;;9.61;89.93
21817;BME280;13247;47.504;7.382;2023-02-16T10:41:41;98472.44;;;9.77;89.88
21817;BME280;13247;47.504;7.382;2023-02-16T10:44:36;98470.22;;;10.24;82.69
21817;BME280;13247;47.504;7.382;2023-02-16T10:47:34;98474.34;;;10.42;78.05
21817;BME280;13247;47.504;7.382;2023-02-16T10:53:50;98475.31;;;10.36;80.37
21817;BME280;13247;47.504;7.382;2023-02-16T10:57:04;98469.81;;;10.56;68.19
21817;BME280;13247;47.504;7.382;2023-02-16T10:59:49;98460.22;;;10.52;69.12
21817;BME280;13247;47.504;7.382;2023-02-16T11:08:14;98455.16;;;11.00;72.45
21817;BME280;13247;47.504;7.382;2023-02-16T11:11:09;98452.38;;;11.11;68.04
21817;BME280;13247;47.504;7.382;2023-02-16T11:14:10;98447.66;;;11.33;71.41
21817;BME280;13247;47.504;7.382;2023-02-16T11:17:11;98449.22;;;11.44;64.05
21817;BME280;13247;47.504;7.382;2023-02-16T11:20:05;98441.25;;;11.50;65.10
21817;BME280;13247;47.504;7.382;2023-02-16T11:22:53;98431.41;;;11.60;64.53
21817;BME280;13247;47.504;7.382;2023-02-16T11:25:40;98430.19;;;11.80;64.35
21817;BME280;13247;47.504;7.382;2023-02-16T11:28:46;98423.78;;;11.97;64.49
21817;BME280;13247;47.504;7.382;2023-02-16T11:31:36;98419.50;;;11.90;63.07
21817;BME280;13247;47.504;7.382;2023-02-16T11:34:43;98420.09;;;12.05;68.53
21817;BME280;13247;47.504;7.382;2023-02-16T11:37:32;98420.31;;;11.95;65.45
21817;BME280;13247;47.504;7.382;2023-02-16T11:40:22;98408.75;;;12.03;58.76
21817;BME280;13247;47.504;7.382;2023-02-16T11:43:16;98405.63;;;12.26;57.58
21817;BME280;13247;47.504;7.382;2023-02-16T11:46:08;98395.50;;;12.49;57.79
21817;BME280;13247;47.504;7.382;2023-02-16T11:48:56;98395.69;;;12.40;58.61
21817;BME280;13247;47.504;7.382;2023-02-16T11:52:16;98391.16;;;12.46;58.49
21817;BME280;13247;47.504;7.382;2023-02-16T11:55:01;98389.19;;;12.94;57.19
21817;BME280;13247;47.504;7.382;2023-02-16T11:57:46;98394.09;;;12.73;60.22
21817;BME280;13247;47.504;7.382;2023-02-16T12:00:32;98396.66;;;12.74;51.58
21817;BME280;13247;47.504;7.382;2023-02-16T12:03:20;98383.34;;;13.18;52.50
21817;BME280;13247;47.504;7.382;2023-02-16T12:15:19;98375.75;;;13.40;52.71
21817;BME280;13247;47.504;7.382;2023-02-16T12:18:13;98366.28;;;13.33;53.41
21817;BME280;13247;47.504;7.382;2023-02-16T12:24:42;98362.69;;;13.69;51.04
21817;BME280;13247;47.504;7.382;2023-02-16T12:33:46;98351.34;;;13.98;48.01
21817;BME280;13247;47.504;7.382;2023-02-16T12:36:45;98350.53;;;14.25;47.73
21817;BME280;13247;47.504;7.382;2023-02-16T12:39:59;98346.72;;;14.35;50.86
21817;BME280;13247;47.504;7.382;2023-02-16T12:46:10;98341.53;;;14.61;45.88
21817;BME280;13247;47.504;7.382;2023-02-16T12:49:12;98336.53;;;14.80;44.72
21817;BME280;13247;47.504;7.382;2023-02-16T12:52:35;98338.28;;;14.79;44.41
21817;BME280;13247;47.504;7.382;2023-02-16T12:55:38;98338.38;;;14.76;44.79
21817;BME280;13247;47.504;7.382;2023-02-16T12:58:31;98331.78;;;14.63;45.80
21817;BME280;13247;47.504;7.382;2023-02-16T13:01:27;98327.31;;;14.91;45.65
21817;BME280;13247;47.504;7.382;2023-02-16T13:04:36;98329.28;;;14.86;45.03
21817;BME280;13247;47.504;7.382;2023-02-16T13:07:35;98327.53;;;14.85;44.60
21817;BME280;13247;47.504;7.382;2023-02-16T13:10:35;98329.75;;;14.71;45.77
21817;BME280;13247;47.504;7.382;2023-02-16T13:13:25;98327.88;;;14.47;46.70
21817;BME280;13247;47.504;7.382;2023-02-16T13:16:25;98324.00;;;14.59;45.46
21817;BME280;13247;47.504;7.382;2023-02-16T13:19:13;98326.19;;;14.72;43.82
21817;BME280;13247;47.504;7.382;2023-02-16T13:22:35;98323.66;;;14.95;44.14
21817;BME280;13247;47.504;7.382;2023-02-16T13:29:09;98326.41;;;15.19;43.27
21817;BME280;13247;47.504;7.382;2023-02-16T13:35:18;98319.72;;;15.09;43.23
21817;BME280;13247;47.504;7.382;2023-02-16T13:38:39;98318.22;;;15.00;44.45
21817;BME280;13247;47.504;7.382;2023-02-16T13:41:51;98317.91;;;14.84;43.62
21817;BME280;13247;47.504;7.382;2023-02-16T13:44:52;98315.25;;;15.11;43.66
21817;BME280;13247;47.504;7.382;2023-02-16T13:47:40;98306.03;;;15.22;43.18
21817;BME280;13247;47.504;7.382;2023-02-16T13:50:29;98308.94;;;15.15;42.70
21817;BME280;13247;47.504;7.382;2023-02-16T13:53:19;98297.53;;;15.14;43.75
21817;BME280;13247;47.504;7.382;2023-02-16T13:56:34;98305.38;;;15.16;44.34
21817;BME280;13247;47.504;7.382;2023-02-16T14:02:10;98313.69;;;15.05;44.68
21817;BME280;13247;47.504;7.382;2023-02-16T14:07:40;98309.00;;;14.59;45.21
21817;BME280;13247;47.504;7.382;2023-02-16T14:13:45;98306.34;;;14.61;45.49
21817;BME280;13247;47.504;7.382;2023-02-16T14:16:31;98312.44;;;14.89;44.72
21817;BME280;13247;47.504;7.382;2023-02-16T14:19:23;98306.53;;;14.82;44.95
21817;BME280;13247;47.504;7.382;2023-02-16T14:22:10;98296.94;;;15.05;44.63
21817;BME280;13247;47.504;7.382;2023-02-16T14:24:57;98300.53;;;15.04;44.70
21817;BME280;13247;47.504;7.382;2023-02-16T14:28:55;98291.50;;;14.84;44.68
21817;BME280;13247;47.504;7.382;2023-02-16T14:31:14;98287.19;;;14.80;45.26
21817;BME280;13247;47.504;7.382;2023-02-16T14:34:06;98296.47;;;14.66;45.28
21817;BME280;13247;47.504;7.382;2023-02-16T14:43:46;98295.31;;;14.48;45.58
21817;BME280;13247;47.504;7.382;2023-02-16T14:56:37;98293.16;;;14.59;47.99
21817;BME280;13247;47.504;7.382;2023-02-16T14:59:39;98298.16;;;14.42;47.84
21817;BME280;13247;47.504;7.382;2023-02-16T15:02:37;98299.66;;;14.49;46.82
21817;BME280;13247;47.504;7.382;2023-02-16T15:05:26;98294.72;;;14.39;46.78
21817;BME280;13247;47.504;7.382;2023-02-16T15:08:27;98298.66;;;14.53;46.01
21817;BME280;13247;47.504;7.382;2023-02-16T15:11:20;98295.09;;;14.54;46.17
21817;BME280;13247;47.504;7.382;2023-02-16T15:14:09;98300.09;;;14.36;47.52
21817;BME280;13247;47.504;7.382;2023-02-16T15:16:56;98306.06;;;14.42;46.59
21817;BME280;13247;47.504;7.382;2023-02-16T15:19:41;98304.59;;;14.32;46.51
21817;BME280;13247;47.504;7.382;2023-02-16T15:22:27;98304.50;;;14.35;45.98
21817;BME280;13247;47.504;7.382;2023-02-16T15:25:32;98301.28;;;14.24;46.28
21817;BME280;13247;47.504;7.382;2023-02-16T15:28:20;98295.16;;;14.24;45.60
21817;BME280;13247;47.504;7.382;2023-02-16T15:31:16;98300.53;;;14.21;46.16
21817;BME280;13247;47.504;7.382;2023-02-16T15:34:05;98298.84;;;14.18;47.18
21817;BME280;13247;47.504;7.382;2023-02-16T15:36:50;98297.06;;;14.18;46.31
21817;BME280;13247;47.504;7.382;2023-02-16T15:39:35;98298.03;;;14.16;46.92
21817;BME280;13247;47.504;7.382;2023-02-16T15:42:23;98302.72;;;14.06;46.30
21817;BME280;13247;47.504;7.382;2023-02-16T15:45:33;98286.94;;;14.05;46.05
21817;BME280;13247;47.504;7.382;2023-02-16T15:48:25;98283.53;;;14.01;48.18
21817;BME280;13247;47.504;7.382;2023-02-16T15:54:28;98282.47;;;14.07;47.03
21817;BME280;13247;47.504;7.382;2023-02-16T15:57:18;98279.44;;;13.91;49.89
21817;BME280;13247;47.504;7.382;2023-02-16T16:00:12;98276.81;;;13.91;49.60
21817;BME280;13247;47.504;7.382;2023-02-16T16:03:00;98284.84;;;13.87;50.33
21817;BME280;13247;47.504;7.382;2023-02-16T16:06:01;98289.00;;;13.94;48.22
21817;BME280;13247;47.504;7.382;2023-02-16T16:08:46;98290.63;;;13.99;48.40
21817;BME280;13247;47.504;7.382;2023-02-16T16:11:31;98270.97;;;14.09;48.42
21817;BME280;13247;47.504;7.382;2023-02-16T16:14:16;98278.94;;;14.08;48.78
21817;BME280;13247;47.504;7.382;2023-02-16T16:17:03;98286.53;;;13.89;51.28
21817;BME280;13247;47.504;7.382;2023-02-16T16:19:49;98274.59;;;13.76;55.42
21817;BME280;13247;47.504;7.382;2023-02-16T16:22:39;98278.06;;;13.48;61.68
21817;BME280;13247;47.504;7.382;2023-02-16T16:25:37;98282.25;;;13.22;65.38
21817;BME280;13247;47.504;7.382;2023-02-16T16:34:10;98297.53;;;12.75;71.70
21817;BME280;13247;47.504;7.382;2023-02-16T16:36:56;98296.22;;;12.91;67.68
21817;BME280;13247;47.504;7.382;2023-02-16T16:39:42;98303.34;;;12.14;77.01
21817;BME280;13247;47.504;7.382;2023-02-16T16:42:27;98293.03;;;12.43;73.57
21817;BME280;13247;47.504;7.382;2023-02-16T16:48:33;98293.72;;;12.51;65.02
21817;BME280;13247;47.504;7.382;2023-02-16T16:51:36;98294.56;;;12.51;65.97
21817;BME280;13247;47.504;7.382;2023-02-16T16:57:14;98291.81;;;12.19;72.40
21817;BME280;13247;47.504;7.382;2023-02-16T17:00:01;98292.47;;;11.89;71.50
21817;BME280;13247;47.504;7.382;2023-02-16T17:02:45;98289.19;;;11.79;74.22
21817;BME280;13247;47.504;7.382;2023-02-16T17:05:31;98292.22;;;11.58;79.42
21817;BME280;13247;47.504;7.382;2023-02-16T17:08:16;98296.59;;;11.58;81.79